sensor_id;sensor_type;location;lat;lon;timestamp;P1;durP1;ratioP1;P2;durP2;ratioP2
20417;SDS011;10368;51.436;6.774;2022-12-24T00:00:13;22.07;;;4.40;;
20417;SDS011;10368;51.436;6.774;2022-12-24T00:02:42;29.20;;;4.57;;
20417;SDS011;10368;51.436;6.774;2022-12-24T00:05:09;15.90;;;3.73;;
20417;SDS011;10368;51.436;6.774;2022-12-24T00:07:38;22.77;;;5.17;;
20417;SDS011;10368;51.436;6.774;2022-12-24T00:10:06;24.33;;;5.00;;
20417;SDS011;10368;51.436;6.774;2022-12-24T00:12:36;18.27;;;3.83;;
20417;SDS011;10368;51.436;6.774;2022-12-24T00:15:05;17.37;;;3.47;;
20417;SDS011;10368;51.436;6.774;2022-12-24T00:17:35;16.70;;;3.80;;
20417;SDS011;10368;51.436;6.774;2022-12-24T00:20:04;22.20;;;4.30;;
20417;SDS011;10368;51.436;6.774;2022-12-24T00:22:32;22.73;;;4.47;;
20417;SDS011;10368;51.436;6.774;2022-12-24T00:24:59;20.93;;;3.90;;
20417;SDS011;10368;51.436;6.774;2022-12-24T00:27:25;17.07;;;3.53;;
20417;SDS011;10368;51.436;6.774;2022-12-24T00:29:52;20.57;;;4.37;;
20417;SDS011;10368;51.436;6.774;2022-12-24T00:32:19;20.67;;;4.77;;
20417;SDS011;10368;51.436;6.774;2022-12-24T00:34:46;14.03;;;3.90;;
20417;SDS011;10368;51.436;6.774;2022-12-24T00:37:13;23.87;;;4.00;;
20417;SDS011;10368;51.436;6.774;2022-12-24T00:39:40;17.93;;;3.83;;
20417;SDS011;10368;51.436;6.774;2022-12-24T00:42:07;16.70;;;3.33;;
20417;SDS011;10368;51.436;6.774;2022-12-24T00:44:34;13.80;;;4.53;;
20417;SDS011;10368;51.436;6.774;2022-12-24T00:47:00;16.93;;;4.30;;
20417;SDS011;10368;51.436;6.774;2022-12-24T00:49:35;19.93;;;4.27;;
20417;SDS011;10368;51.436;6.774;2022-12-24T00:52:02;14.20;;;4.00;;
20417;SDS011;10368;51.436;6.774;2022-12-24T00:54:29;17.93;;;4.17;;
20417;SDS011;10368;51.436;6.774;2022-12-24T00:56:56;18.27;;;3.60;;
20417;SDS011;10368;51.436;6.774;2022-12-24T00:59:22;25.30;;;3.60;;
20417;SDS011;10368;51.436;6.774;2022-12-24T01:01:49;19.13;;;4.27;;
20417;SDS011;10368;51.436;6.774;2022-12-24T01:04:16;16.73;;;3.80;;
20417;SDS011;10368;51.436;6.774;2022-12-24T01:07:02;26.57;;;3.93;;
20417;SDS011;10368;51.436;6.774;2022-12-24T01:09:29;21.90;;;3.47;;
20417;SDS011;10368;51.436;6.774;2022-12-24T01:11:56;17.90;;;4.20;;
20417;SDS011;10368;51.436;6.774;2022-12-24T01:14:23;13.50;;;3.57;;
20417;SDS011;10368;51.436;6.774;2022-12-24T01:16:49;19.47;;;4.03;;
20417;SDS011;10368;51.436;6.774;2022-12-24T01:19:16;14.17;;;3.60;;
20417;SDS011;10368;51.436;6.774;2022-12-24T01:21:43;33.73;;;6.00;;
20417;SDS011;10368;51.436;6.774;2022-12-24T01:24:13;15.07;;;3.50;;
20417;SDS011;10368;51.436;6.774;2022-12-24T01:26:41;33.90;;;5.20;;
20417;SDS011;10368;51.436;6.774;2022-12-24T01:29:09;19.90;;;3.97;;
20417;SDS011;10368;51.436;6.774;2022-12-24T01:31:36;21.63;;;4.73;;
20417;SDS011;10368;51.436;6.774;2022-12-24T01:34:03;18.30;;;3.40;;
20417;SDS011;10368;51.436;6.774;2022-12-24T01:36:32;19.97;;;4.27;;
20417;SDS011;10368;51.436;6.774;2022-12-24T01:38:59;18.37;;;4.60;;
20417;SDS011;10368;51.436;6.774;2022-12-24T01:41:25;21.50;;;3.53;;
20417;SDS011;10368;51.436;6.774;2022-12-24T01:44:31;27.77;;;4.27;;
20417;SDS011;10368;51.436;6.774;2022-12-24T01:47:07;20.83;;;4.20;;
20417;SDS011;10368;51.436;6.774;2022-12-24T01:49:34;21.97;;;4.30;;
20417;SDS011;10368;51.436;6.774;2022-12-24T01:52:04;18.77;;;4.97;;
20417;SDS011;10368;51.436;6.774;2022-12-24T01:54:43;18.60;;;4.57;;
20417;SDS011;10368;51.436;6.774;2022-12-24T01:57:25;23.90;;;4.43;;
20417;SDS011;10368;51.436;6.774;2022-12-24T01:59:58;27.20;;;4.50;;
20417;SDS011;10368;51.436;6.774;2022-12-24T02:02:29;23.10;;;5.00;;
20417;SDS011;10368;51.436;6.774;2022-12-24T02:07:35;23.97;;;4.97;;
20417;SDS011;10368;51.436;6.774;2022-12-24T02:10:06;22.03;;;6.03;;
20417;SDS011;10368;51.436;6.774;2022-12-24T02:12:36;24.43;;;5.93;;
20417;SDS011;10368;51.436;6.774;2022-12-24T02:15:06;23.17;;;4.50;;
20417;SDS011;10368;51.436;6.774;2022-12-24T02:33:53;20.90;;;4.30;;
20417;SDS011;10368;51.436;6.774;2022-12-24T02:36:30;27.03;;;4.83;;
20417;SDS011;10368;51.436;6.774;2022-12-24T02:39:03;25.33;;;3.87;;
20417;SDS011;10368;51.436;6.774;2022-12-24T02:41:36;24.50;;;5.70;;
20417;SDS011;10368;51.436;6.774;2022-12-24T02:44:26;28.17;;;5.30;;
20417;SDS011;10368;51.436;6.774;2022-12-24T02:46:56;18.63;;;4.70;;
20417;SDS011;10368;51.436;6.774;2022-12-24T02:49:25;28.53;;;5.00;;
20417;SDS011;10368;51.436;6.774;2022-12-24T02:51:52;21.27;;;3.80;;
20417;SDS011;10368;51.436;6.774;2022-12-24T02:54:19;23.23;;;4.27;;
20417;SDS011;10368;51.436;6.774;2022-12-24T02:56:50;18.83;;;3.67;;
20417;SDS011;10368;51.436;6.774;2022-12-24T03:02:40;26.27;;;5.10;;
20417;SDS011;10368;51.436;6.774;2022-12-24T03:05:27;25.13;;;4.40;;
20417;SDS011;10368;51.436;6.774;2022-12-24T03:08:01;17.47;;;4.17;;
20417;SDS011;10368;51.436;6.774;2022-12-24T03:10:52;26.53;;;5.60;;
20417;SDS011;10368;51.436;6.774;2022-12-24T03:13:22;23.10;;;4.40;;
20417;SDS011;10368;51.436;6.774;2022-12-24T03:15:51;17.90;;;4.83;;
20417;SDS011;10368;51.436;6.774;2022-12-24T03:18:20;26.73;;;4.80;;
20417;SDS011;10368;51.436;6.774;2022-12-24T03:23:35;19.80;;;3.67;;
20417;SDS011;10368;51.436;6.774;2022-12-24T03:26:04;21.17;;;4.07;;
20417;SDS011;10368;51.436;6.774;2022-12-24T03:28:33;31.27;;;4.30;;
20417;SDS011;10368;51.436;6.774;2022-12-24T03:31:03;31.93;;;4.80;;
20417;SDS011;10368;51.436;6.774;2022-12-24T03:33:31;18.73;;;3.97;;
20417;SDS011;10368;51.436;6.774;2022-12-24T03:35:58;23.30;;;4.10;;
20417;SDS011;10368;51.436;6.774;2022-12-24T03:38:24;25.13;;;5.03;;
20417;SDS011;10368;51.436;6.774;2022-12-24T03:40:54;10.17;;;4.17;;
20417;SDS011;10368;51.436;6.774;2022-12-24T03:43:26;26.60;;;4.50;;
20417;SDS011;10368;51.436;6.774;2022-12-24T03:45:53;21.10;;;4.77;;
20417;SDS011;10368;51.436;6.774;2022-12-24T03:48:25;22.80;;;4.70;;
20417;SDS011;10368;51.436;6.774;2022-12-24T03:50:58;26.70;;;4.33;;
20417;SDS011;10368;51.436;6.774;2022-12-24T03:53:28;23.83;;;4.87;;
20417;SDS011;10368;51.436;6.774;2022-12-24T03:55:55;26.23;;;3.97;;
20417;SDS011;10368;51.436;6.774;2022-12-24T03:58:22;21.30;;;3.50;;
20417;SDS011;10368;51.436;6.774;2022-12-24T04:00:49;20.40;;;3.77;;
20417;SDS011;10368;51.436;6.774;2022-12-24T04:03:16;20.77;;;4.97;;
20417;SDS011;10368;51.436;6.774;2022-12-24T04:05:42;25.80;;;4.07;;
20417;SDS011;10368;51.436;6.774;2022-12-24T04:08:09;20.90;;;4.63;;
20417;SDS011;10368;51.436;6.774;2022-12-24T04:10:36;18.77;;;4.63;;
20417;SDS011;10368;51.436;6.774;2022-12-24T04:13:03;18.10;;;4.50;;
20417;SDS011;10368;51.436;6.774;2022-12-24T04:15:30;13.90;;;4.37;;
20417;SDS011;10368;51.436;6.774;2022-12-24T04:17:57;14.63;;;4.13;;
20417;SDS011;10368;51.436;6.774;2022-12-24T04:20:24;15.90;;;3.07;;
20417;SDS011;10368;51.436;6.774;2022-12-24T04:22:51;14.90;;;2.80;;
20417;SDS011;10368;51.436;6.774;2022-12-24T04:25:22;15.27;;;3.07;;
20417;SDS011;10368;51.436;6.774;2022-12-24T04:27:49;17.83;;;3.33;;
20417;SDS011;10368;51.436;6.774;2022-12-24T04:30:18;13.10;;;2.87;;
20417;SDS011;10368;51.436;6.774;2022-12-24T04:32:45;15.73;;;2.90;;
20417;SDS011;10368;51.436;6.774;2022-12-24T04:35:12;12.00;;;3.50;;
20417;SDS011;10368;51.436;6.774;2022-12-24T04:37:39;12.97;;;3.40;;
20417;SDS011;10368;51.436;6.774;2022-12-24T04:40:06;17.40;;;3.10;;
20417;SDS011;10368;51.436;6.774;2022-12-24T04:42:33;15.97;;;4.07;;
20417;SDS011;10368;51.436;6.774;2022-12-24T04:45:00;12.47;;;2.50;;
20417;SDS011;10368;51.436;6.774;2022-12-24T04:47:27;10.93;;;2.37;;
20417;SDS011;10368;51.436;6.774;2022-12-24T04:49:54;10.03;;;2.57;;
20417;SDS011;10368;51.436;6.774;2022-12-24T04:52:21;14.00;;;3.03;;
20417;SDS011;10368;51.436;6.774;2022-12-24T04:54:47;14.77;;;3.40;;
20417;SDS011;10368;51.436;6.774;2022-12-24T04:57:14;13.60;;;2.50;;
20417;SDS011;10368;51.436;6.774;2022-12-24T04:59:41;7.27;;;3.20;;
20417;SDS011;10368;51.436;6.774;2022-12-24T05:02:08;13.53;;;3.37;;
20417;SDS011;10368;51.436;6.774;2022-12-24T05:04:35;16.70;;;3.37;;
20417;SDS011;10368;51.436;6.774;2022-12-24T05:07:02;14.73;;;3.70;;
20417;SDS011;10368;51.436;6.774;2022-12-24T05:09:29;14.43;;;2.83;;
20417;SDS011;10368;51.436;6.774;2022-12-24T05:11:56;10.43;;;2.60;;
20417;SDS011;10368;51.436;6.774;2022-12-24T05:14:22;11.20;;;3.00;;
20417;SDS011;10368;51.436;6.774;2022-12-24T05:16:49;16.33;;;3.07;;
20417;SDS011;10368;51.436;6.774;2022-12-24T05:19:16;14.73;;;3.10;;
20417;SDS011;10368;51.436;6.774;2022-12-24T05:21:43;11.70;;;2.73;;
20417;SDS011;10368;51.436;6.774;2022-12-24T05:24:30;13.60;;;3.03;;
20417;SDS011;10368;51.436;6.774;2022-12-24T05:27:15;16.10;;;3.50;;
20417;SDS011;10368;51.436;6.774;2022-12-24T05:29:42;12.67;;;3.03;;
20417;SDS011;10368;51.436;6.774;2022-12-24T05:32:09;12.40;;;2.73;;
20417;SDS011;10368;51.436;6.774;2022-12-24T05:34:36;14.97;;;3.50;;
20417;SDS011;10368;51.436;6.774;2022-12-24T05:37:03;14.50;;;4.43;;
20417;SDS011;10368;51.436;6.774;2022-12-24T05:39:30;18.07;;;3.70;;
20417;SDS011;10368;51.436;6.774;2022-12-24T05:41:57;13.73;;;3.17;;
20417;SDS011;10368;51.436;6.774;2022-12-24T05:44:23;16.80;;;3.13;;
20417;SDS011;10368;51.436;6.774;2022-12-24T05:46:50;12.10;;;3.00;;
20417;SDS011;10368;51.436;6.774;2022-12-24T05:49:17;13.47;;;4.50;;
20417;SDS011;10368;51.436;6.774;2022-12-24T05:51:44;10.83;;;3.83;;
20417;SDS011;10368;51.436;6.774;2022-12-24T05:54:11;15.53;;;3.97;;
20417;SDS011;10368;51.436;6.774;2022-12-24T05:56:38;24.87;;;3.43;;
20417;SDS011;10368;51.436;6.774;2022-12-24T05:59:05;20.33;;;3.60;;
20417;SDS011;10368;51.436;6.774;2022-12-24T06:01:33;12.60;;;3.63;;
20417;SDS011;10368;51.436;6.774;2022-12-24T06:04:03;17.80;;;3.30;;
20417;SDS011;10368;51.436;6.774;2022-12-24T06:06:30;13.70;;;3.00;;
20417;SDS011;10368;51.436;6.774;2022-12-24T06:08:57;16.60;;;3.23;;
20417;SDS011;10368;51.436;6.774;2022-12-24T06:11:30;16.77;;;3.40;;
20417;SDS011;10368;51.436;6.774;2022-12-24T06:13:57;17.13;;;3.53;;
20417;SDS011;10368;51.436;6.774;2022-12-24T06:16:24;11.40;;;3.40;;
20417;SDS011;10368;51.436;6.774;2022-12-24T06:18:51;11.33;;;3.30;;
20417;SDS011;10368;51.436;6.774;2022-12-24T06:21:19;14.87;;;3.13;;
20417;SDS011;10368;51.436;6.774;2022-12-24T06:23:46;9.47;;;2.77;;
20417;SDS011;10368;51.436;6.774;2022-12-24T06:26:15;12.20;;;3.67;;
20417;SDS011;10368;51.436;6.774;2022-12-24T06:28:44;14.27;;;4.00;;
20417;SDS011;10368;51.436;6.774;2022-12-24T06:31:13;14.03;;;4.00;;
20417;SDS011;10368;51.436;6.774;2022-12-24T06:33:42;13.07;;;3.67;;
20417;SDS011;10368;51.436;6.774;2022-12-24T06:36:11;18.97;;;4.20;;
20417;SDS011;10368;51.436;6.774;2022-12-24T06:38:43;12.33;;;3.53;;
20417;SDS011;10368;51.436;6.774;2022-12-24T06:41:10;17.30;;;3.53;;
20417;SDS011;10368;51.436;6.774;2022-12-24T06:43:37;16.73;;;3.93;;
20417;SDS011;10368;51.436;6.774;2022-12-24T06:46:04;22.90;;;4.40;;
20417;SDS011;10368;51.436;6.774;2022-12-24T06:48:31;21.17;;;4.33;;
20417;SDS011;10368;51.436;6.774;2022-12-24T06:51:00;19.47;;;3.67;;
20417;SDS011;10368;51.436;6.774;2022-12-24T06:53:28;21.63;;;5.00;;
20417;SDS011;10368;51.436;6.774;2022-12-24T06:56:04;17.67;;;4.80;;
20417;SDS011;10368;51.436;6.774;2022-12-24T06:58:33;14.30;;;4.03;;
20417;SDS011;10368;51.436;6.774;2022-12-24T07:01:02;17.87;;;4.27;;
20417;SDS011;10368;51.436;6.774;2022-12-24T07:03:31;19.33;;;4.30;;
20417;SDS011;10368;51.436;6.774;2022-12-24T07:05:59;10.20;;;3.67;;
20417;SDS011;10368;51.436;6.774;2022-12-24T07:08:26;18.03;;;3.83;;
20417;SDS011;10368;51.436;6.774;2022-12-24T07:10:53;18.73;;;4.67;;
20417;SDS011;10368;51.436;6.774;2022-12-24T07:13:20;14.83;;;3.57;;
20417;SDS011;10368;51.436;6.774;2022-12-24T07:15:55;16.20;;;4.73;;
20417;SDS011;10368;51.436;6.774;2022-12-24T07:18:23;18.93;;;3.67;;
20417;SDS011;10368;51.436;6.774;2022-12-24T07:20:50;13.70;;;3.90;;
20417;SDS011;10368;51.436;6.774;2022-12-24T07:23:17;14.80;;;4.50;;
20417;SDS011;10368;51.436;6.774;2022-12-24T07:25:44;16.83;;;3.77;;
20417;SDS011;10368;51.436;6.774;2022-12-24T07:28:11;15.50;;;4.30;;
20417;SDS011;10368;51.436;6.774;2022-12-24T07:30:40;27.13;;;5.20;;
20417;SDS011;10368;51.436;6.774;2022-12-24T07:33:07;20.30;;;3.50;;
20417;SDS011;10368;51.436;6.774;2022-12-24T07:35:34;22.93;;;4.80;;
20417;SDS011;10368;51.436;6.774;2022-12-24T07:38:01;12.40;;;4.23;;
20417;SDS011;10368;51.436;6.774;2022-12-24T07:40:28;21.07;;;4.67;;
20417;SDS011;10368;51.436;6.774;2022-12-24T07:42:55;25.27;;;5.47;;
20417;SDS011;10368;51.436;6.774;2022-12-24T07:45:22;15.87;;;3.83;;
20417;SDS011;10368;51.436;6.774;2022-12-24T07:47:49;19.70;;;4.63;;
20417;SDS011;10368;51.436;6.774;2022-12-24T07:50:16;18.33;;;5.33;;
20417;SDS011;10368;51.436;6.774;2022-12-24T07:52:43;17.17;;;5.13;;
20417;SDS011;10368;51.436;6.774;2022-12-24T07:55:10;16.67;;;4.20;;
20417;SDS011;10368;51.436;6.774;2022-12-24T07:57:37;25.77;;;5.93;;
20417;SDS011;10368;51.436;6.774;2022-12-24T08:00:04;15.40;;;4.83;;
20417;SDS011;10368;51.436;6.774;2022-12-24T08:02:31;17.67;;;4.30;;
20417;SDS011;10368;51.436;6.774;2022-12-24T08:04:58;14.17;;;4.67;;
20417;SDS011;10368;51.436;6.774;2022-12-24T08:07:25;16.40;;;4.53;;
20417;SDS011;10368;51.436;6.774;2022-12-24T08:09:52;21.83;;;4.70;;
20417;SDS011;10368;51.436;6.774;2022-12-24T08:12:19;17.23;;;4.53;;
20417;SDS011;10368;51.436;6.774;2022-12-24T08:14:46;24.43;;;5.50;;
20417;SDS011;10368;51.436;6.774;2022-12-24T08:17:12;21.37;;;5.80;;
20417;SDS011;10368;51.436;6.774;2022-12-24T08:19:39;19.97;;;5.33;;
20417;SDS011;10368;51.436;6.774;2022-12-24T08:22:06;31.23;;;6.67;;
20417;SDS011;10368;51.436;6.774;2022-12-24T08:24:33;21.77;;;5.93;;
20417;SDS011;10368;51.436;6.774;2022-12-24T08:27:00;24.70;;;5.90;;
20417;SDS011;10368;51.436;6.774;2022-12-24T08:29:26;30.37;;;10.43;;
20417;SDS011;10368;51.436;6.774;2022-12-24T08:31:53;24.23;;;7.07;;
20417;SDS011;10368;51.436;6.774;2022-12-24T08:34:21;18.93;;;6.83;;
20417;SDS011;10368;51.436;6.774;2022-12-24T08:36:48;23.23;;;5.80;;
20417;SDS011;10368;51.436;6.774;2022-12-24T08:39:15;17.63;;;4.90;;
20417;SDS011;10368;51.436;6.774;2022-12-24T08:41:42;20.70;;;4.47;;
20417;SDS011;10368;51.436;6.774;2022-12-24T08:44:08;35.13;;;5.63;;
20417;SDS011;10368;51.436;6.774;2022-12-24T08:46:35;27.83;;;4.53;;
20417;SDS011;10368;51.436;6.774;2022-12-24T08:49:02;24.90;;;4.20;;
20417;SDS011;10368;51.436;6.774;2022-12-24T08:51:29;22.27;;;5.10;;
20417;SDS011;10368;51.436;6.774;2022-12-24T08:53:56;27.20;;;5.27;;
20417;SDS011;10368;51.436;6.774;2022-12-24T08:56:23;19.47;;;4.90;;
20417;SDS011;10368;51.436;6.774;2022-12-24T08:58:50;21.27;;;5.00;;
20417;SDS011;10368;51.436;6.774;2022-12-24T09:01:18;24.83;;;5.23;;
20417;SDS011;10368;51.436;6.774;2022-12-24T09:03:46;20.93;;;4.97;;
20417;SDS011;10368;51.436;6.774;2022-12-24T09:06:13;20.73;;;4.77;;
20417;SDS011;10368;51.436;6.774;2022-12-24T09:08:41;19.40;;;5.87;;
20417;SDS011;10368;51.436;6.774;2022-12-24T09:11:09;21.30;;;4.80;;
20417;SDS011;10368;51.436;6.774;2022-12-24T09:13:39;24.80;;;4.20;;
20417;SDS011;10368;51.436;6.774;2022-12-24T09:16:06;22.33;;;4.40;;
20417;SDS011;10368;51.436;6.774;2022-12-24T09:18:34;23.30;;;4.77;;
20417;SDS011;10368;51.436;6.774;2022-12-24T09:21:02;22.17;;;5.00;;
20417;SDS011;10368;51.436;6.774;2022-12-24T09:23:34;19.47;;;4.87;;
20417;SDS011;10368;51.436;6.774;2022-12-24T09:26:08;22.57;;;4.67;;
20417;SDS011;10368;51.436;6.774;2022-12-24T09:28:40;19.23;;;5.37;;
20417;SDS011;10368;51.436;6.774;2022-12-24T09:31:10;30.17;;;5.30;;
20417;SDS011;10368;51.436;6.774;2022-12-24T09:33:41;14.90;;;5.20;;
20417;SDS011;10368;51.436;6.774;2022-12-24T09:36:09;23.80;;;4.87;;
20417;SDS011;10368;51.436;6.774;2022-12-24T09:38:36;18.10;;;4.70;;
20417;SDS011;10368;51.436;6.774;2022-12-24T09:46:45;21.10;;;3.97;;
20417;SDS011;10368;51.436;6.774;2022-12-24T09:49:23;23.53;;;5.37;;
20417;SDS011;10368;51.436;6.774;2022-12-24T09:51:57;21.63;;;5.50;;
20417;SDS011;10368;51.436;6.774;2022-12-24T09:54:37;19.63;;;3.87;;
20417;SDS011;10368;51.436;6.774;2022-12-24T09:57:34;30.17;;;5.20;;
20417;SDS011;10368;51.436;6.774;2022-12-24T10:00:03;15.73;;;4.27;;
20417;SDS011;10368;51.436;6.774;2022-12-24T10:02:31;23.27;;;4.77;;
20417;SDS011;10368;51.436;6.774;2022-12-24T10:04:58;20.10;;;4.67;;
20417;SDS011;10368;51.436;6.774;2022-12-24T10:07:43;27.20;;;4.80;;
20417;SDS011;10368;51.436;6.774;2022-12-24T10:13:40;17.73;;;4.77;;
20417;SDS011;10368;51.436;6.774;2022-12-24T10:27:16;17.37;;;3.93;;
20417;SDS011;10368;51.436;6.774;2022-12-24T10:29:48;23.10;;;5.53;;
20417;SDS011;10368;51.436;6.774;2022-12-24T10:32:22;26.20;;;5.70;;
20417;SDS011;10368;51.436;6.774;2022-12-24T10:37:24;18.07;;;4.60;;
20417;SDS011;10368;51.436;6.774;2022-12-24T10:39:56;17.63;;;4.47;;
20417;SDS011;10368;51.436;6.774;2022-12-24T10:42:26;21.97;;;5.17;;
20417;SDS011;10368;51.436;6.774;2022-12-24T10:45:19;29.50;;;6.67;;
20417;SDS011;10368;51.436;6.774;2022-12-24T10:47:48;26.87;;;5.00;;
20417;SDS011;10368;51.436;6.774;2022-12-24T10:50:32;27.93;;;5.40;;
20417;SDS011;10368;51.436;6.774;2022-12-24T10:53:16;16.97;;;4.93;;
20417;SDS011;10368;51.436;6.774;2022-12-24T10:55:48;21.70;;;5.03;;
20417;SDS011;10368;51.436;6.774;2022-12-24T10:58:16;21.83;;;5.83;;
20417;SDS011;10368;51.436;6.774;2022-12-24T11:00:48;18.87;;;4.57;;
20417;SDS011;10368;51.436;6.774;2022-12-24T11:05:44;22.87;;;4.83;;
20417;SDS011;10368;51.436;6.774;2022-12-24T11:10:39;22.93;;;5.03;;
20417;SDS011;10368;51.436;6.774;2022-12-24T11:13:21;19.43;;;4.63;;
20417;SDS011;10368;51.436;6.774;2022-12-24T11:16:04;23.17;;;5.80;;
20417;SDS011;10368;51.436;6.774;2022-12-24T11:18:52;22.23;;;5.43;;
20417;SDS011;10368;51.436;6.774;2022-12-24T11:21:27;19.30;;;5.57;;
20417;SDS011;10368;51.436;6.774;2022-12-24T11:24:07;23.50;;;5.70;;
20417;SDS011;10368;51.436;6.774;2022-12-24T11:26:38;18.30;;;4.80;;
20417;SDS011;10368;51.436;6.774;2022-12-24T11:32:09;21.97;;;4.50;;
20417;SDS011;10368;51.436;6.774;2022-12-24T11:34:43;21.07;;;5.70;;
20417;SDS011;10368;51.436;6.774;2022-12-24T11:37:14;27.83;;;5.53;;
20417;SDS011;10368;51.436;6.774;2022-12-24T11:39:53;27.07;;;4.60;;
20417;SDS011;10368;51.436;6.774;2022-12-24T11:42:35;21.17;;;5.47;;
20417;SDS011;10368;51.436;6.774;2022-12-24T11:45:06;17.37;;;4.43;;
20417;SDS011;10368;51.436;6.774;2022-12-24T11:47:44;21.67;;;5.83;;
20417;SDS011;10368;51.436;6.774;2022-12-24T11:50:22;31.20;;;6.00;;
20417;SDS011;10368;51.436;6.774;2022-12-24T11:53:02;22.27;;;4.43;;
20417;SDS011;10368;51.436;6.774;2022-12-24T11:55:49;24.03;;;5.73;;
20417;SDS011;10368;51.436;6.774;2022-12-24T11:58:22;22.40;;;4.93;;
20417;SDS011;10368;51.436;6.774;2022-12-24T12:01:15;24.43;;;5.47;;
20417;SDS011;10368;51.436;6.774;2022-12-24T12:03:52;18.90;;;5.20;;
20417;SDS011;10368;51.436;6.774;2022-12-24T12:09:11;17.27;;;5.27;;
20417;SDS011;10368;51.436;6.774;2022-12-24T12:11:43;16.23;;;4.37;;
20417;SDS011;10368;51.436;6.774;2022-12-24T12:14:15;32.70;;;6.10;;
20417;SDS011;10368;51.436;6.774;2022-12-24T12:16:49;25.50;;;5.83;;
20417;SDS011;10368;51.436;6.774;2022-12-24T12:20:06;24.00;;;5.40;;
20417;SDS011;10368;51.436;6.774;2022-12-24T12:28:28;22.23;;;4.60;;
20417;SDS011;10368;51.436;6.774;2022-12-24T12:31:15;24.17;;;5.43;;
20417;SDS011;10368;51.436;6.774;2022-12-24T12:39:25;19.00;;;4.20;;
20417;SDS011;10368;51.436;6.774;2022-12-24T12:47:11;19.30;;;4.23;;
20417;SDS011;10368;51.436;6.774;2022-12-24T12:50:02;19.03;;;4.83;;
20417;SDS011;10368;51.436;6.774;2022-12-24T13:04:16;29.13;;;4.87;;
20417;SDS011;10368;51.436;6.774;2022-12-24T13:07:36;17.83;;;5.17;;
20417;SDS011;10368;51.436;6.774;2022-12-24T13:21:48;21.67;;;4.67;;
20417;SDS011;10368;51.436;6.774;2022-12-24T13:24:17;10.10;;;3.53;;
20417;SDS011;10368;51.436;6.774;2022-12-24T13:27:03;19.63;;;4.63;;
20417;SDS011;10368;51.436;6.774;2022-12-24T13:29:42;22.67;;;4.67;;
20417;SDS011;10368;51.436;6.774;2022-12-24T13:34:49;16.23;;;5.13;;
20417;SDS011;10368;51.436;6.774;2022-12-24T13:37:19;14.60;;;5.23;;
20417;SDS011;10368;51.436;6.774;2022-12-24T13:47:56;13.67;;;5.17;;
20417;SDS011;10368;51.436;6.774;2022-12-24T13:50:37;18.53;;;5.17;;
20417;SDS011;10368;51.436;6.774;2022-12-24T13:53:31;15.70;;;4.37;;
20417;SDS011;10368;51.436;6.774;2022-12-24T13:58:48;21.88;;;6.00;;
20417;SDS011;10368;51.436;6.774;2022-12-24T14:01:19;14.83;;;4.73;;
20417;SDS011;10368;51.436;6.774;2022-12-24T14:03:54;12.67;;;4.87;;
20417;SDS011;10368;51.436;6.774;2022-12-24T14:06:29;16.60;;;5.30;;
20417;SDS011;10368;51.436;6.774;2022-12-24T14:09:14;15.23;;;4.70;;
20417;SDS011;10368;51.436;6.774;2022-12-24T14:14:39;15.30;;;5.33;;
20417;SDS011;10368;51.436;6.774;2022-12-24T14:20:13;14.47;;;4.77;;
20417;SDS011;10368;51.436;6.774;2022-12-24T14:22:43;18.73;;;5.33;;
20417;SDS011;10368;51.436;6.774;2022-12-24T14:25:15;19.27;;;5.07;;
20417;SDS011;10368;51.436;6.774;2022-12-24T14:27:57;19.37;;;5.10;;
20417;SDS011;10368;51.436;6.774;2022-12-24T14:30:29;16.33;;;4.83;;
20417;SDS011;10368;51.436;6.774;2022-12-24T14:32:57;13.43;;;4.90;;
20417;SDS011;10368;51.436;6.774;2022-12-24T14:35:24;20.60;;;5.50;;
20417;SDS011;10368;51.436;6.774;2022-12-24T14:38:01;11.03;;;4.07;;
20417;SDS011;10368;51.436;6.774;2022-12-24T14:40:31;22.67;;;6.30;;
20417;SDS011;10368;51.436;6.774;2022-12-24T14:45:39;18.90;;;5.10;;
20417;SDS011;10368;51.436;6.774;2022-12-24T14:48:12;12.33;;;3.87;;
20417;SDS011;10368;51.436;6.774;2022-12-24T14:56:15;16.97;;;4.43;;
20417;SDS011;10368;51.436;6.774;2022-12-24T14:58:44;19.80;;;4.77;;
20417;SDS011;10368;51.436;6.774;2022-12-24T15:01:22;15.47;;;4.83;;
20417;SDS011;10368;51.436;6.774;2022-12-24T15:04:04;11.10;;;4.47;;
20417;SDS011;10368;51.436;6.774;2022-12-24T15:06:35;16.17;;;5.00;;
20417;SDS011;10368;51.436;6.774;2022-12-24T15:09:15;13.67;;;5.23;;
20417;SDS011;10368;51.436;6.774;2022-12-24T15:11:46;26.80;;;5.17;;
20417;SDS011;10368;51.436;6.774;2022-12-24T15:14:16;16.93;;;4.30;;
20417;SDS011;10368;51.436;6.774;2022-12-24T15:16:52;16.83;;;4.60;;
20417;SDS011;10368;51.436;6.774;2022-12-24T15:19:32;18.63;;;4.50;;
20417;SDS011;10368;51.436;6.774;2022-12-24T15:22:00;18.57;;;4.87;;
20417;SDS011;10368;51.436;6.774;2022-12-24T15:24:33;15.93;;;5.23;;
20417;SDS011;10368;51.436;6.774;2022-12-24T15:27:02;12.93;;;4.43;;
20417;SDS011;10368;51.436;6.774;2022-12-24T15:29:46;13.80;;;5.00;;
20417;SDS011;10368;51.436;6.774;2022-12-24T15:32:15;15.27;;;5.60;;
20417;SDS011;10368;51.436;6.774;2022-12-24T15:34:47;13.23;;;5.00;;
20417;SDS011;10368;51.436;6.774;2022-12-24T15:37:22;15.97;;;5.33;;
20417;SDS011;10368;51.436;6.774;2022-12-24T15:39:52;19.10;;;5.23;;
20417;SDS011;10368;51.436;6.774;2022-12-24T15:42:22;20.43;;;5.73;;
20417;SDS011;10368;51.436;6.774;2022-12-24T15:45:04;22.53;;;5.60;;
20417;SDS011;10368;51.436;6.774;2022-12-24T15:47:43;18.13;;;5.97;;
20417;SDS011;10368;51.436;6.774;2022-12-24T15:50:32;18.23;;;6.33;;
20417;SDS011;10368;51.436;6.774;2022-12-24T15:53:12;14.60;;;6.27;;
20417;SDS011;10368;51.436;6.774;2022-12-24T15:55:58;18.10;;;7.47;;
20417;SDS011;10368;51.436;6.774;2022-12-24T15:58:38;15.80;;;6.30;;
20417;SDS011;10368;51.436;6.774;2022-12-24T16:06:18;18.00;;;6.07;;
20417;SDS011;10368;51.436;6.774;2022-12-24T16:08:46;21.57;;;6.43;;
20417;SDS011;10368;51.436;6.774;2022-12-24T16:16:37;22.77;;;7.03;;
20417;SDS011;10368;51.436;6.774;2022-12-24T16:19:06;22.27;;;6.77;;
20417;SDS011;10368;51.436;6.774;2022-12-24T16:21:43;23.53;;;6.80;;
20417;SDS011;10368;51.436;6.774;2022-12-24T16:26:45;27.03;;;7.03;;
20417;SDS011;10368;51.436;6.774;2022-12-24T16:29:13;25.83;;;6.60;;
20417;SDS011;10368;51.436;6.774;2022-12-24T16:31:45;14.30;;;6.73;;
20417;SDS011;10368;51.436;6.774;2022-12-24T16:34:16;24.70;;;8.03;;
20417;SDS011;10368;51.436;6.774;2022-12-24T16:36:44;29.80;;;7.83;;
20417;SDS011;10368;51.436;6.774;2022-12-24T16:41:50;23.87;;;8.10;;
20417;SDS011;10368;51.436;6.774;2022-12-24T16:44:36;22.27;;;8.37;;
20417;SDS011;10368;51.436;6.774;2022-12-24T16:47:09;19.03;;;6.30;;
20417;SDS011;10368;51.436;6.774;2022-12-24T16:49:42;28.17;;;8.90;;
20417;SDS011;10368;51.436;6.774;2022-12-24T16:52:30;28.17;;;9.20;;
20417;SDS011;10368;51.436;6.774;2022-12-24T16:54:59;41.83;;;12.03;;
20417;SDS011;10368;51.436;6.774;2022-12-24T16:57:26;24.87;;;10.17;;
20417;SDS011;10368;51.436;6.774;2022-12-24T16:59:53;17.90;;;9.17;;
20417;SDS011;10368;51.436;6.774;2022-12-24T17:02:21;26.87;;;9.83;;
20417;SDS011;10368;51.436;6.774;2022-12-24T17:04:50;25.77;;;9.53;;
20417;SDS011;10368;51.436;6.774;2022-12-24T17:07:18;26.67;;;8.67;;
20417;SDS011;10368;51.436;6.774;2022-12-24T17:09:46;27.00;;;9.13;;
20417;SDS011;10368;51.436;6.774;2022-12-24T17:12:13;25.17;;;8.37;;
20417;SDS011;10368;51.436;6.774;2022-12-24T17:14:40;30.80;;;9.37;;
20417;SDS011;10368;51.436;6.774;2022-12-24T17:17:16;28.70;;;8.60;;